Kasane, Botswana
Current Conditions -  °F | °C
As of 10:00 AM on Friday 24 Oct 2014 (Local Time) from FBKE Reporting Station
Clear Clear  
Wind Chill: 90°   Ceiling: Unl
Heat Index: 90°   Visibility: 6mi
Dew Point: 45°   Wind: 8mph
Humidity: 21%   Direction: 320°NW
Pressure: 30"   Gusts: NA
Location:  17.81°S, 25.15°E
Report Text: FBKE 240800Z 32007KT 280V010 CAVOK 32/07 Q1016
Loading
Personal Weather Stations






























Interactive Weather Map
Tropical Storm Tracking
New forecast layout! Learn more

10-Day Weather Forecast

Advertisements
Track Severe Weather on mobile